createdAt,value
2019-02-27T00:01:49.702Z,12.60
2019-02-27T00:04:18.137Z,17.62
2019-02-27T00:06:48.424Z,17.40
2019-02-27T00:09:19.363Z,19.57
2019-02-27T00:11:49.300Z,18.23
2019-02-27T00:14:20.544Z,15.30
2019-02-27T00:16:51.315Z,21.97
2019-02-27T00:19:20.806Z,14.37
2019-02-27T00:21:50.671Z,22.40
2019-02-27T00:24:20.648Z,14.35
2019-02-27T00:26:50.837Z,18.80
2019-02-27T00:29:20.241Z,13.58
2019-02-27T00:31:50.085Z,13.80
2019-02-27T00:34:19.721Z,16.13
2019-02-27T00:36:50.233Z,21.02
2019-02-27T00:39:20.454Z,13.67
2019-02-27T00:41:59.203Z,12.53
2019-02-27T00:44:28.652Z,17.67
2019-02-27T00:46:58.644Z,13.77
2019-02-27T00:49:29.836Z,23.43
2019-02-27T00:51:59.290Z,12.87
2019-02-27T00:54:31.241Z,14.30
2019-02-27T00:57:01.607Z,16.90
2019-02-27T00:59:33.146Z,12.30
2019-02-27T01:02:02.561Z,19.20
2019-02-27T01:04:34.971Z,15.75
2019-02-27T01:07:02.998Z,13.10
2019-02-27T01:09:39.565Z,14.50
2019-02-27T01:12:10.417Z,17.47
2019-02-27T01:14:41.131Z,11.50
2019-02-27T01:17:11.086Z,12.60
2019-02-27T01:19:42.567Z,11.07
2019-02-27T01:22:11.584Z,11.00
2019-02-27T01:24:41.048Z,18.40
2019-02-27T01:27:10.741Z,13.87
2019-02-27T01:29:40.512Z,21.73
2019-02-27T01:32:09.905Z,12.97
2019-02-27T01:34:44.185Z,16.33
2019-02-27T01:37:12.393Z,13.43
2019-02-27T01:39:44.016Z,10.97
2019-02-27T01:42:12.990Z,10.67
2019-02-27T01:44:46.531Z,9.90
2019-02-27T01:47:19.539Z,11.38
2019-02-27T01:49:49.731Z,18.73
2019-02-27T01:52:19.345Z,10.67
2019-02-27T01:54:49.623Z,10.63
2019-02-27T01:57:19.422Z,10.43
2019-02-27T01:59:50.472Z,20.20
2019-02-27T02:02:20.980Z,9.40
2019-02-27T02:04:53.798Z,12.63
2019-02-27T02:07:22.478Z,9.93
2019-02-27T02:09:55.089Z,16.30
2019-02-27T02:12:30.570Z,11.77
2019-02-27T02:15:34.067Z,11.27
2019-02-27T02:18:53.361Z,11.70
2019-02-27T02:21:32.016Z,11.73
2019-02-27T02:24:25.367Z,10.40
2019-02-27T02:27:27.216Z,14.20
2019-02-27T02:30:46.101Z,13.30
2019-02-27T02:33:44.961Z,9.53
2019-02-27T02:37:02.511Z,10.67
2019-02-27T02:39:58.646Z,10.33
2019-02-27T02:43:12.553Z,9.70
2019-02-27T02:46:08.285Z,8.10
2019-02-27T02:49:06.275Z,10.45
2019-02-27T02:52:13.068Z,29.03
2019-02-27T02:55:13.425Z,11.87
2019-02-27T02:57:51.362Z,11.43
2019-02-27T03:01:03.414Z,14.70
2019-02-27T03:04:00.102Z,12.43
2019-02-27T03:07:01.247Z,15.80
2019-02-27T03:09:55.700Z,14.13
2019-02-27T03:13:17.599Z,9.80
2019-02-27T03:16:08.405Z,13.15
2019-02-27T03:19:08.209Z,15.33
2019-02-27T03:22:04.552Z,10.20
2019-02-27T03:25:05.667Z,9.03
2019-02-27T03:28:18.210Z,9.05
2019-02-27T03:31:19.449Z,12.07
2019-02-27T03:34:17.279Z,8.93
2019-02-27T03:37:25.632Z,11.17
2019-02-27T03:40:21.092Z,9.90
2019-02-27T03:43:15.151Z,12.10
2019-02-27T03:45:59.060Z,9.80
2019-02-27T03:48:37.786Z,10.97
2019-02-27T03:51:24.377Z,7.65
2019-02-27T03:54:26.797Z,8.17
2019-02-27T03:57:18.908Z,9.10
2019-02-27T04:00:03.919Z,9.13
2019-02-27T04:03:18.457Z,8.15
2019-02-27T04:06:01.695Z,8.03
2019-02-27T04:08:59.070Z,8.10
2019-02-27T04:11:32.650Z,10.20
2019-02-27T04:14:05.577Z,10.25
2019-02-27T04:16:38.199Z,11.88
2019-02-27T04:19:07.689Z,9.47
2019-02-27T04:21:41.885Z,14.50
2019-02-27T04:24:11.882Z,15.03
2019-02-27T04:26:42.714Z,15.70
2019-02-27T04:29:12.825Z,11.13
2019-02-27T04:31:43.141Z,26.37
2019-02-27T04:34:12.803Z,17.03
2019-02-27T04:36:46.954Z,15.03
2019-02-27T04:39:16.150Z,10.37
2019-02-27T04:41:49.573Z,10.90
2019-02-27T04:44:19.664Z,13.43
2019-02-27T04:46:49.221Z,21.73
2019-02-27T04:49:18.624Z,13.20
2019-02-27T04:51:50.473Z,21.30
2019-02-27T04:54:20.810Z,18.05
2019-02-27T04:56:51.373Z,11.83
2019-02-27T04:59:20.825Z,9.50
2019-02-27T05:01:51.434Z,9.18
2019-02-27T05:04:20.906Z,15.27
2019-02-27T05:06:50.277Z,20.10
2019-02-27T05:09:21.581Z,18.93
2019-02-27T05:11:51.038Z,29.47
2019-02-27T05:14:27.360Z,19.93
2019-02-27T05:16:57.069Z,18.63
2019-02-27T05:19:31.161Z,13.43
2019-02-27T05:22:01.345Z,11.63
2019-02-27T05:24:35.179Z,18.03
2019-02-27T05:27:08.577Z,12.87
2019-02-27T05:29:38.361Z,14.47
2019-02-27T05:32:08.089Z,14.50
2019-02-27T05:34:38.565Z,18.27
2019-02-27T05:37:10.841Z,10.70
2019-02-27T05:39:40.157Z,15.35
2019-02-27T05:42:09.740Z,10.23
2019-02-27T05:44:40.029Z,27.42
2019-02-27T05:47:11.210Z,20.13
2019-02-27T05:49:44.296Z,13.73
2019-02-27T05:52:16.229Z,11.07
2019-02-27T05:54:47.484Z,10.70
2019-02-27T05:57:18.113Z,9.90
2019-02-27T05:59:54.185Z,19.93
2019-02-27T06:02:25.463Z,14.98
2019-02-27T06:04:59.047Z,12.67
2019-02-27T06:07:28.242Z,10.35
2019-02-27T06:10:00.161Z,23.80
2019-02-27T06:12:30.367Z,29.10
2019-02-27T06:15:00.327Z,15.23
2019-02-27T06:17:30.376Z,16.95
2019-02-27T06:20:02.038Z,18.50
2019-02-27T06:22:32.147Z,29.87
2019-02-27T06:25:01.871Z,23.93
2019-02-27T06:27:33.943Z,24.53
2019-02-27T06:30:03.617Z,11.60
2019-02-27T06:32:33.023Z,14.60
2019-02-27T06:35:02.421Z,12.83
2019-02-27T06:37:35.060Z,14.45
2019-02-27T06:40:07.401Z,16.30
2019-02-27T06:42:36.633Z,12.90
2019-02-27T06:45:10.219Z,6.92
2019-02-27T06:47:39.660Z,8.20
2019-02-27T06:50:11.204Z,10.00
2019-02-27T06:52:42.502Z,9.80
2019-02-27T06:55:15.416Z,16.60
2019-02-27T06:57:45.535Z,9.20
2019-02-27T07:00:18.553Z,8.28
2019-02-27T07:02:48.105Z,10.00
2019-02-27T07:05:18.444Z,15.28
2019-02-27T07:07:50.508Z,24.33
2019-02-27T07:10:21.986Z,8.60
2019-02-27T07:12:55.265Z,10.53
2019-02-27T07:15:24.839Z,9.47
2019-02-27T07:17:55.585Z,10.73
2019-02-27T07:20:25.626Z,12.00
2019-02-27T07:22:55.136Z,15.15
2019-02-27T07:25:27.255Z,10.37
2019-02-27T07:27:57.667Z,19.57
2019-02-27T07:30:26.985Z,8.28
2019-02-27T07:32:57.370Z,12.80
2019-02-27T07:35:29.317Z,16.07
2019-02-27T07:38:00.401Z,27.17
2019-02-27T07:40:30.177Z,12.50
2019-02-27T07:43:00.237Z,20.73
2019-02-27T07:45:29.633Z,13.10
2019-02-27T07:47:59.025Z,9.70
2019-02-27T07:50:34.912Z,10.37
2019-02-27T07:53:04.871Z,8.70
2019-02-27T07:55:34.251Z,10.40
2019-02-27T07:58:04.328Z,8.87
2019-02-27T08:00:33.701Z,12.80
2019-02-27T08:03:09.110Z,9.88
2019-02-27T08:05:35.840Z,12.17
2019-02-27T08:08:05.434Z,11.00
2019-02-27T08:10:36.897Z,18.87
2019-02-27T08:13:07.301Z,26.90
2019-02-27T08:15:36.669Z,18.60
2019-02-27T08:18:06.156Z,16.05
2019-02-27T08:20:35.729Z,10.30
2019-02-27T08:23:07.197Z,11.80
2019-02-27T08:25:37.394Z,8.93
2019-02-27T08:28:12.526Z,11.43
2019-02-27T08:30:41.832Z,15.33
2019-02-27T08:33:11.204Z,18.60
2019-02-27T08:35:40.716Z,10.00
2019-02-27T08:38:13.369Z,9.50
2019-02-27T08:40:43.548Z,11.57
2019-02-27T08:43:13.683Z,12.03
2019-02-27T08:45:43.024Z,17.37
2019-02-27T08:48:17.560Z,11.50
2019-02-27T08:50:50.459Z,14.65
2019-02-27T08:53:19.768Z,10.30
2019-02-27T08:55:49.158Z,9.08
2019-02-27T08:58:19.053Z,9.90
2019-02-27T09:00:48.433Z,13.80
2019-02-27T09:03:20.659Z,14.18
2019-02-27T09:05:50.979Z,11.97
2019-02-27T09:08:21.259Z,11.73
2019-02-27T09:10:51.993Z,20.87
2019-02-27T09:13:21.605Z,12.10
2019-02-27T09:15:51.133Z,17.57
2019-02-27T09:18:22.830Z,12.00
2019-02-27T09:20:53.534Z,14.07
2019-02-27T09:23:23.585Z,20.67
2019-02-27T09:25:57.275Z,17.50
2019-02-27T09:28:27.564Z,19.63
2019-02-27T09:30:57.484Z,12.07
2019-02-27T09:33:27.980Z,25.97
2019-02-27T09:36:02.332Z,13.80
2019-02-27T09:38:37.109Z,15.85
2019-02-27T09:41:12.255Z,14.30
2019-02-27T09:43:40.745Z,16.03
2019-02-27T09:46:10.128Z,11.40
2019-02-27T09:48:40.135Z,17.07
2019-02-27T09:51:09.815Z,16.13
2019-02-27T09:53:42.169Z,14.13
2019-02-27T09:56:12.357Z,17.53
2019-02-27T09:58:45.517Z,20.27
2019-02-27T10:01:21.113Z,18.57
2019-02-27T10:03:52.071Z,14.10
2019-02-27T10:06:23.983Z,15.30
2019-02-27T10:08:56.418Z,12.47
2019-02-27T10:11:28.533Z,12.95
2019-02-27T10:13:58.437Z,17.73
2019-02-27T10:16:28.591Z,16.43
2019-02-27T10:18:58.241Z,11.50
2019-02-27T10:21:28.014Z,13.83
2019-02-27T10:23:57.398Z,14.27
2019-02-27T10:26:26.965Z,10.88
2019-02-27T10:28:57.437Z,11.50
2019-02-27T10:31:27.113Z,13.53
2019-02-27T10:33:57.069Z,15.63
2019-02-27T10:36:27.459Z,17.30
2019-02-27T10:38:59.422Z,15.87
2019-02-27T10:41:28.462Z,16.60
2019-02-27T10:43:59.408Z,16.63
2019-02-27T10:46:31.617Z,17.90
2019-02-27T10:49:00.982Z,18.93
2019-02-27T10:51:41.547Z,16.00
2019-02-27T10:54:10.560Z,16.60
2019-02-27T10:56:40.324Z,18.50
2019-02-27T10:59:09.725Z,23.70
2019-02-27T11:01:41.269Z,13.93
2019-02-27T11:04:12.916Z,15.57
2019-02-27T11:06:42.701Z,8.87
2019-02-27T11:09:22.720Z,17.57
2019-02-27T11:11:53.946Z,16.75
2019-02-27T11:14:24.953Z,13.13
2019-02-27T11:16:54.510Z,14.10
2019-02-27T11:19:23.892Z,12.93
2019-02-27T11:21:54.002Z,13.90
2019-02-27T11:24:25.996Z,11.67
2019-02-27T11:27:16.776Z,14.57
2019-02-27T11:29:46.133Z,8.40
2019-02-27T11:32:16.221Z,9.65
2019-02-27T11:34:48.462Z,11.30
2019-02-27T11:37:18.758Z,10.13
2019-02-27T11:39:48.974Z,11.60
2019-02-27T11:42:20.100Z,10.07
2019-02-27T11:44:51.575Z,12.40
2019-02-27T11:47:21.293Z,11.73
2019-02-27T11:49:51.089Z,10.30
2019-02-27T11:52:27.873Z,15.97
2019-02-27T11:54:55.632Z,14.77
2019-02-27T11:57:27.398Z,13.10
2019-02-27T11:59:56.452Z,11.83
2019-02-27T12:02:29.044Z,13.80
2019-02-27T12:04:57.361Z,13.43
2019-02-27T12:07:27.091Z,12.20
2019-02-27T12:09:56.486Z,13.57
2019-02-27T12:12:27.298Z,13.50
2019-02-27T12:14:56.701Z,11.93
2019-02-27T12:17:26.315Z,15.40
2019-02-27T12:19:56.651Z,14.70
2019-02-27T12:22:29.534Z,13.33
2019-02-27T12:24:59.004Z,10.23
2019-02-27T12:27:47.891Z,8.47
2019-02-27T12:30:00.106Z,13.53
2019-02-27T12:32:30.980Z,10.50
2019-02-27T12:35:00.476Z,13.73
2019-02-27T12:37:34.074Z,10.37
2019-02-27T12:40:03.470Z,11.70
2019-02-27T12:42:37.577Z,13.23
2019-02-27T12:45:10.960Z,17.70
2019-02-27T12:47:44.314Z,9.43
2019-02-27T12:50:15.948Z,12.43
2019-02-27T12:52:47.899Z,12.50
2019-02-27T12:55:20.485Z,7.96
2019-02-27T12:57:52.364Z,8.87
2019-02-27T13:00:29.596Z,8.35
2019-02-27T13:03:00.079Z,8.80
2019-02-27T13:05:32.359Z,9.98
2019-02-27T13:08:02.189Z,10.53
2019-02-27T13:10:34.141Z,12.40
2019-02-27T13:13:04.459Z,11.60
2019-02-27T13:15:35.332Z,9.10
2019-02-27T13:18:06.583Z,9.00
2019-02-27T13:20:38.021Z,8.55
2019-02-27T13:23:08.184Z,9.90
2019-02-27T13:25:38.213Z,14.00
2019-02-27T13:28:14.651Z,9.80
2019-02-27T13:30:44.439Z,9.30
2019-02-27T13:33:13.925Z,13.20
2019-02-27T13:35:48.108Z,20.93
2019-02-27T13:38:23.874Z,11.00
2019-02-27T13:40:59.093Z,10.65
2019-02-27T13:43:29.060Z,14.53
2019-02-27T13:45:58.446Z,12.70
2019-02-27T13:48:28.421Z,14.13
2019-02-27T13:51:02.472Z,11.40
2019-02-27T13:53:32.037Z,17.77
2019-02-27T13:56:02.921Z,10.00
2019-02-27T13:58:35.734Z,11.70
2019-02-27T14:01:03.899Z,11.60
2019-02-27T14:03:37.368Z,12.60
2019-02-27T14:06:09.329Z,12.00
2019-02-27T14:08:37.801Z,10.27
2019-02-27T14:11:07.575Z,11.25
2019-02-27T14:13:37.673Z,9.53
2019-02-27T14:16:08.801Z,11.37
2019-02-27T14:18:38.166Z,11.77
2019-02-27T14:21:11.732Z,12.00
2019-02-27T14:23:46.835Z,11.70
2019-02-27T14:26:17.912Z,15.25
2019-02-27T14:28:48.081Z,11.20
2019-02-27T14:31:18.637Z,8.30
2019-02-27T14:33:48.371Z,11.10
2019-02-27T14:36:20.339Z,9.53
2019-02-27T14:38:49.747Z,8.70
2019-02-27T14:41:20.179Z,10.30
2019-02-27T14:43:50.283Z,15.30
2019-02-27T14:46:20.433Z,12.83
2019-02-27T14:48:52.382Z,8.00
2019-02-27T14:51:23.546Z,13.66
2019-02-27T14:53:55.747Z,11.97
2019-02-27T14:56:27.243Z,12.85
2019-02-27T14:59:02.049Z,6.93
2019-02-27T15:01:35.338Z,9.83
2019-02-27T15:04:04.717Z,6.03
2019-02-27T15:06:35.957Z,7.92
2019-02-27T15:09:10.654Z,7.70
2019-02-27T15:11:39.945Z,6.80
2019-02-27T15:14:11.809Z,6.10
2019-02-27T15:16:42.103Z,10.97
2019-02-27T15:19:11.810Z,9.80
2019-02-27T15:21:46.105Z,7.70
2019-02-27T15:24:12.266Z,7.30
2019-02-27T15:26:45.349Z,10.03
2019-02-27T15:29:14.478Z,11.33
2019-02-27T15:31:45.499Z,6.53
2019-02-27T15:34:16.230Z,6.25
2019-02-27T15:36:47.328Z,7.63
2019-02-27T15:39:22.476Z,7.97
2019-02-27T15:41:51.845Z,7.87
2019-02-27T15:44:21.815Z,7.55
2019-02-27T15:46:56.396Z,6.07
2019-02-27T15:49:27.152Z,6.50
2019-02-27T15:51:59.984Z,6.17
2019-02-27T15:54:29.675Z,7.13
2019-02-27T15:57:02.067Z,8.57
2019-02-27T15:59:31.886Z,9.00
2019-02-27T16:02:03.483Z,7.77
2019-02-27T16:04:33.592Z,10.08
2019-02-27T16:07:03.818Z,7.10
2019-02-27T16:09:35.480Z,14.03
2019-02-27T16:12:06.080Z,10.03
2019-02-27T16:14:40.237Z,15.93
2019-02-27T16:17:08.922Z,13.67
2019-02-27T16:19:38.266Z,10.50
2019-02-27T16:22:07.692Z,16.37
2019-02-27T16:24:40.341Z,17.25
2019-02-27T16:27:08.512Z,16.50
2019-02-27T16:29:38.425Z,18.40
2019-02-27T16:32:07.847Z,25.30
2019-02-27T16:34:37.268Z,11.03
2019-02-27T16:37:06.734Z,14.77
2019-02-27T16:39:40.873Z,15.05
2019-02-27T16:42:07.185Z,14.03
2019-02-27T16:44:36.611Z,20.73
2019-02-27T16:47:06.025Z,23.20
2019-02-27T16:49:35.489Z,17.97
2019-02-27T16:52:07.946Z,21.03
2019-02-27T16:54:36.115Z,14.07
2019-02-27T16:57:05.518Z,20.80
2019-02-27T16:59:34.932Z,29.20
2019-02-27T17:02:06.537Z,47.57
2019-02-27T17:04:38.854Z,26.63
2019-02-27T17:07:08.965Z,31.13
2019-02-27T17:09:41.022Z,18.27
2019-02-27T17:12:10.400Z,20.27
2019-02-27T17:14:39.785Z,21.50
2019-02-27T17:17:09.222Z,26.45
2019-02-27T17:19:39.194Z,29.47
2019-02-27T17:22:10.884Z,23.47
2019-02-27T17:24:40.246Z,23.63
2019-02-27T17:27:12.576Z,24.90
2019-02-27T17:29:44.680Z,30.63
2019-02-27T17:32:14.057Z,30.67
2019-02-27T17:34:47.335Z,21.30
2019-02-27T17:37:16.228Z,32.30
2019-02-27T17:39:45.642Z,39.97
2019-02-27T17:42:18.570Z,35.92
2019-02-27T17:44:51.467Z,31.73
2019-02-27T17:47:20.856Z,21.20
2019-02-27T17:49:50.237Z,34.83
2019-02-27T17:52:19.681Z,46.67
2019-02-27T17:54:49.728Z,55.63
2019-02-27T17:57:24.231Z,47.00
2019-02-27T17:59:55.117Z,61.75
2019-02-27T18:02:30.111Z,64.83
2019-02-27T18:04:59.930Z,61.97
2019-02-27T18:07:34.327Z,75.43
2019-02-27T18:10:01.375Z,68.10
2019-02-27T18:12:35.546Z,36.67
2019-02-27T18:15:06.334Z,60.87
2019-02-27T18:20:00.323Z,48.33
2019-02-27T18:22:32.972Z,38.87
2019-02-27T18:25:07.435Z,48.90
2019-02-27T18:27:59.746Z,36.30
2019-02-27T18:30:29.349Z,29.50
2019-02-27T18:33:00.503Z,43.20
2019-02-27T18:35:30.246Z,46.02
2019-02-27T18:37:59.921Z,39.97
2019-02-27T18:40:29.388Z,38.07
2019-02-27T18:42:59.843Z,30.37
2019-02-27T18:45:32.201Z,26.17
2019-02-27T18:48:01.592Z,43.93
2019-02-27T18:50:31.950Z,31.25
2019-02-27T18:53:01.417Z,32.30
2019-02-27T18:55:31.456Z,37.33
2019-02-27T18:58:00.980Z,54.93
2019-02-27T19:00:36.930Z,43.07
2019-02-27T19:03:07.780Z,39.40
2019-02-27T19:05:41.804Z,32.10
2019-02-27T19:08:12.766Z,50.48
2019-02-27T19:10:43.324Z,41.63
2019-02-27T19:13:15.914Z,47.60
2019-02-27T19:15:46.470Z,48.30
2019-02-27T19:18:17.650Z,51.55
2019-02-27T19:20:47.737Z,32.17
2019-02-27T19:23:18.562Z,31.73
2019-02-27T19:25:48.265Z,36.53
2019-02-27T19:28:18.430Z,33.53
2019-02-27T19:30:47.885Z,34.77
2019-02-27T19:33:18.805Z,28.55
2019-02-27T19:35:48.966Z,47.77
2019-02-27T19:38:19.357Z,33.83
2019-02-27T19:40:52.833Z,40.23
2019-02-27T19:43:27.144Z,29.87
2019-02-27T19:46:03.725Z,39.47
2019-02-27T19:48:38.371Z,28.87
2019-02-27T19:51:08.821Z,25.33
2019-02-27T19:53:42.720Z,29.03
2019-02-27T19:56:18.013Z,26.70
2019-02-27T19:58:48.287Z,25.20
2019-02-27T20:01:19.529Z,23.27
2019-02-27T20:03:48.932Z,23.43
2019-02-27T20:06:18.533Z,24.23
2019-02-27T20:08:47.930Z,28.50
2019-02-27T20:11:20.338Z,26.37
2019-02-27T20:13:53.956Z,26.87
2019-02-27T20:16:26.922Z,19.85
2019-02-27T20:18:57.725Z,21.83
2019-02-27T20:21:31.092Z,24.98
2019-02-27T20:24:02.426Z,21.37
2019-02-27T20:26:33.443Z,24.40
2019-02-27T20:29:05.409Z,25.93
2019-02-27T20:31:36.160Z,22.93
2019-02-27T20:34:11.632Z,24.60
2019-02-27T20:36:41.034Z,30.53
2019-02-27T20:39:12.104Z,18.73
2019-02-27T20:41:45.002Z,20.27
2019-02-27T20:44:16.009Z,19.40
2019-02-27T20:46:46.332Z,25.60
2019-02-27T20:49:18.057Z,25.12
2019-02-27T20:51:48.468Z,21.17
2019-02-27T20:54:18.279Z,23.20
2019-02-27T20:56:55.354Z,24.20
2019-02-27T20:59:18.898Z,24.37
2019-02-27T21:01:48.471Z,27.20
2019-02-27T21:04:18.795Z,20.45
2019-02-27T21:06:50.455Z,19.70
2019-02-27T21:09:24.062Z,22.67
2019-02-27T21:11:53.805Z,22.17
2019-02-27T21:14:24.260Z,22.45
2019-02-27T21:16:53.604Z,18.50
2019-02-27T21:19:23.161Z,17.52
2019-02-27T21:21:54.600Z,18.70
2019-02-27T21:24:26.319Z,29.42
2019-02-27T21:26:57.222Z,32.33
2019-02-27T21:29:27.245Z,22.73
2019-02-27T21:31:58.296Z,18.10
2019-02-27T21:34:28.549Z,21.87
2019-02-27T21:36:59.106Z,17.00
2019-02-27T21:39:30.154Z,19.80
2019-02-27T21:41:59.697Z,18.93
2019-02-27T21:44:30.461Z,24.47
2019-02-27T21:47:01.294Z,15.07
2019-02-27T21:49:32.221Z,19.85
2019-02-27T21:52:02.780Z,25.33
2019-02-27T21:54:32.365Z,20.53
2019-02-27T21:57:04.683Z,16.70
2019-02-27T21:59:39.769Z,15.47
2019-02-27T22:02:09.411Z,17.40
2019-02-27T22:04:41.235Z,17.43
2019-02-27T22:07:10.781Z,20.17
2019-02-27T22:09:40.200Z,14.73
2019-02-27T22:12:10.340Z,29.77
2019-02-27T22:14:40.155Z,16.97
2019-02-27T22:17:09.757Z,19.57
2019-02-27T22:19:39.145Z,15.63
2019-02-27T22:22:08.757Z,18.27
2019-02-27T22:24:38.466Z,13.70
2019-02-27T22:27:09.178Z,15.30
2019-02-27T22:29:40.872Z,16.40
2019-02-27T22:32:12.103Z,15.50
2019-02-27T22:34:41.692Z,17.97
2019-02-27T22:37:11.152Z,15.17
2019-02-27T22:39:42.741Z,13.30
2019-02-27T22:42:14.670Z,14.70
2019-02-27T22:44:44.836Z,16.03
2019-02-27T22:47:21.471Z,16.20
2019-02-27T22:49:49.273Z,13.10
2019-02-27T22:52:20.878Z,13.17
2019-02-27T22:54:51.513Z,13.90
2019-02-27T22:57:22.882Z,20.30
2019-02-27T22:59:54.115Z,12.77
2019-02-27T23:02:25.070Z,12.70
2019-02-27T23:04:55.505Z,12.37
2019-02-27T23:07:27.086Z,11.63
2019-02-27T23:09:57.650Z,11.07
2019-02-27T23:12:29.651Z,17.23
2019-02-27T23:14:59.466Z,9.90
2019-02-27T23:17:31.590Z,9.90
2019-02-27T23:20:00.608Z,10.97
2019-02-27T23:22:30.478Z,10.67
2019-02-27T23:24:59.874Z,12.40
2019-02-27T23:27:32.289Z,9.63
2019-02-27T23:30:03.344Z,11.53
2019-02-27T23:32:33.375Z,9.25
2019-02-27T23:35:02.883Z,9.40
2019-02-27T23:37:35.457Z,10.13
2019-02-27T23:40:05.867Z,10.70
2019-02-27T23:42:35.817Z,16.93
2019-02-27T23:45:10.315Z,12.00
2019-02-27T23:47:39.415Z,12.67
2019-02-27T23:50:12.030Z,5.90
2019-02-27T23:52:41.963Z,9.43
2019-02-27T23:55:12.194Z,7.83
2019-02-27T23:57:41.997Z,8.57
